sensor_id;sensor_type;location;lat;lon;timestamp;P1;durP1;ratioP1;P2;durP2;ratioP2
27333;SDS011;14817;57.104;-2.094;2022-09-09T00:04:49;44.13;;;8.52;;
27333;SDS011;14817;57.104;-2.094;2022-09-09T00:16:15;31.25;;;7.07;;
27333;SDS011;14817;57.104;-2.094;2022-09-09T00:21:23;26.70;;;6.15;;
27333;SDS011;14817;57.104;-2.094;2022-09-09T00:23:59;23.88;;;5.55;;
27333;SDS011;14817;57.104;-2.094;2022-09-09T00:29:36;26.27;;;5.83;;
27333;SDS011;14817;57.104;-2.094;2022-09-09T00:32:16;28.35;;;6.38;;
27333;SDS011;14817;57.104;-2.094;2022-09-09T00:34:49;34.22;;;7.50;;
27333;SDS011;14817;57.104;-2.094;2022-09-09T00:37:20;33.97;;;6.45;;
27333;SDS011;14817;57.104;-2.094;2022-09-09T00:39:52;37.50;;;6.82;;
27333;SDS011;14817;57.104;-2.094;2022-09-09T00:42:24;32.88;;;6.85;;
27333;SDS011;14817;57.104;-2.094;2022-09-09T00:48:08;31.17;;;7.22;;
27333;SDS011;14817;57.104;-2.094;2022-09-09T00:53:14;32.13;;;7.47;;
27333;SDS011;14817;57.104;-2.094;2022-09-09T00:58:14;48.67;;;9.23;;
27333;SDS011;14817;57.104;-2.094;2022-09-09T01:00:42;46.97;;;8.75;;
27333;SDS011;14817;57.104;-2.094;2022-09-09T01:03:13;40.63;;;8.48;;
27333;SDS011;14817;57.104;-2.094;2022-09-09T01:10:54;37.33;;;6.93;;
27333;SDS011;14817;57.104;-2.094;2022-09-09T01:13:27;45.08;;;9.27;;
27333;SDS011;14817;57.104;-2.094;2022-09-09T01:16:04;43.78;;;8.82;;
27333;SDS011;14817;57.104;-2.094;2022-09-09T01:18:45;42.22;;;8.50;;
27333;SDS011;14817;57.104;-2.094;2022-09-09T01:27:16;48.97;;;8.20;;
27333;SDS011;14817;57.104;-2.094;2022-09-09T01:29:46;53.70;;;9.20;;
27333;SDS011;14817;57.104;-2.094;2022-09-09T01:37:53;51.78;;;8.32;;
27333;SDS011;14817;57.104;-2.094;2022-09-09T01:40:20;54.10;;;10.20;;
27333;SDS011;14817;57.104;-2.094;2022-09-09T01:42:48;42.88;;;8.50;;
27333;SDS011;14817;57.104;-2.094;2022-09-09T01:45:15;42.50;;;7.72;;
27333;SDS011;14817;57.104;-2.094;2022-09-09T01:47:42;29.08;;;7.93;;
27333;SDS011;14817;57.104;-2.094;2022-09-09T01:50:29;36.05;;;7.57;;
27333;SDS011;14817;57.104;-2.094;2022-09-09T01:52:57;30.48;;;6.82;;
27333;SDS011;14817;57.104;-2.094;2022-09-09T01:55:33;29.40;;;7.13;;
27333;SDS011;14817;57.104;-2.094;2022-09-09T02:01:06;34.50;;;6.95;;
27333;SDS011;14817;57.104;-2.094;2022-09-09T02:03:35;36.53;;;6.80;;
27333;SDS011;14817;57.104;-2.094;2022-09-09T02:11:19;41.85;;;8.75;;
27333;SDS011;14817;57.104;-2.094;2022-09-09T02:16:54;35.80;;;7.18;;
27333;SDS011;14817;57.104;-2.094;2022-09-09T02:19:42;32.17;;;7.07;;
27333;SDS011;14817;57.104;-2.094;2022-09-09T02:22:35;24.00;;;4.97;;
27333;SDS011;14817;57.104;-2.094;2022-09-09T02:25:07;25.98;;;4.97;;
27333;SDS011;14817;57.104;-2.094;2022-09-09T02:27:37;23.80;;;4.80;;
27333;SDS011;14817;57.104;-2.094;2022-09-09T02:30:04;29.92;;;5.45;;
27333;SDS011;14817;57.104;-2.094;2022-09-09T02:32:36;22.95;;;5.32;;
27333;SDS011;14817;57.104;-2.094;2022-09-09T02:35:11;32.28;;;6.35;;
27333;SDS011;14817;57.104;-2.094;2022-09-09T02:37:45;30.73;;;5.00;;
27333;SDS011;14817;57.104;-2.094;2022-09-09T02:40:16;38.58;;;5.95;;
27333;SDS011;14817;57.104;-2.094;2022-09-09T02:45:18;31.35;;;6.05;;
27333;SDS011;14817;57.104;-2.094;2022-09-09T02:51:07;38.17;;;6.40;;
27333;SDS011;14817;57.104;-2.094;2022-09-09T02:53:43;45.08;;;8.23;;
27333;SDS011;14817;57.104;-2.094;2022-09-09T02:56:23;28.48;;;6.47;;
27333;SDS011;14817;57.104;-2.094;2022-09-09T02:58:56;39.63;;;6.75;;
27333;SDS011;14817;57.104;-2.094;2022-09-09T03:01:24;35.15;;;6.78;;
27333;SDS011;14817;57.104;-2.094;2022-09-09T03:03:51;48.95;;;8.77;;
27333;SDS011;14817;57.104;-2.094;2022-09-09T03:06:18;40.60;;;7.53;;
27333;SDS011;14817;57.104;-2.094;2022-09-09T03:08:50;37.00;;;7.22;;
27333;SDS011;14817;57.104;-2.094;2022-09-09T03:11:23;41.80;;;6.97;;
27333;SDS011;14817;57.104;-2.094;2022-09-09T03:13:50;32.20;;;7.43;;
27333;SDS011;14817;57.104;-2.094;2022-09-09T03:16:18;57.25;;;8.38;;
27333;SDS011;14817;57.104;-2.094;2022-09-09T03:18:49;50.42;;;8.10;;
27333;SDS011;14817;57.104;-2.094;2022-09-09T03:21:16;42.65;;;7.95;;
27333;SDS011;14817;57.104;-2.094;2022-09-09T03:23:43;40.97;;;8.40;;
27333;SDS011;14817;57.104;-2.094;2022-09-09T03:26:11;38.83;;;8.05;;
27333;SDS011;14817;57.104;-2.094;2022-09-09T03:28:42;45.63;;;8.10;;
27333;SDS011;14817;57.104;-2.094;2022-09-09T03:31:10;51.80;;;7.72;;
27333;SDS011;14817;57.104;-2.094;2022-09-09T03:33:39;43.53;;;6.85;;
27333;SDS011;14817;57.104;-2.094;2022-09-09T03:36:10;36.88;;;6.75;;
27333;SDS011;14817;57.104;-2.094;2022-09-09T03:38:37;36.13;;;7.95;;
27333;SDS011;14817;57.104;-2.094;2022-09-09T03:41:05;35.97;;;6.88;;
27333;SDS011;14817;57.104;-2.094;2022-09-09T03:43:33;34.38;;;6.47;;
27333;SDS011;14817;57.104;-2.094;2022-09-09T03:46:00;39.30;;;7.07;;
27333;SDS011;14817;57.104;-2.094;2022-09-09T03:48:28;35.88;;;7.40;;
27333;SDS011;14817;57.104;-2.094;2022-09-09T03:50:55;38.47;;;7.00;;
27333;SDS011;14817;57.104;-2.094;2022-09-09T03:53:24;42.97;;;7.65;;
27333;SDS011;14817;57.104;-2.094;2022-09-09T03:55:52;34.00;;;6.72;;
27333;SDS011;14817;57.104;-2.094;2022-09-09T03:58:27;37.15;;;8.82;;
27333;SDS011;14817;57.104;-2.094;2022-09-09T04:01:04;28.75;;;5.97;;
27333;SDS011;14817;57.104;-2.094;2022-09-09T04:03:36;31.92;;;7.07;;
27333;SDS011;14817;57.104;-2.094;2022-09-09T04:06:03;34.88;;;6.03;;
27333;SDS011;14817;57.104;-2.094;2022-09-09T04:08:33;30.27;;;6.10;;
27333;SDS011;14817;57.104;-2.094;2022-09-09T04:11:01;36.38;;;7.80;;
27333;SDS011;14817;57.104;-2.094;2022-09-09T04:13:34;21.63;;;4.70;;
27333;SDS011;14817;57.104;-2.094;2022-09-09T04:16:02;22.38;;;4.75;;
27333;SDS011;14817;57.104;-2.094;2022-09-09T04:18:30;17.83;;;3.60;;
27333;SDS011;14817;57.104;-2.094;2022-09-09T04:20:59;24.75;;;4.70;;
27333;SDS011;14817;57.104;-2.094;2022-09-09T04:23:28;26.17;;;3.90;;
27333;SDS011;14817;57.104;-2.094;2022-09-09T04:25:58;15.68;;;3.55;;
27333;SDS011;14817;57.104;-2.094;2022-09-09T04:28:30;20.17;;;4.13;;
27333;SDS011;14817;57.104;-2.094;2022-09-09T04:31:06;21.60;;;4.25;;
27333;SDS011;14817;57.104;-2.094;2022-09-09T04:33:39;23.23;;;4.78;;
27333;SDS011;14817;57.104;-2.094;2022-09-09T04:36:08;16.23;;;4.07;;
27333;SDS011;14817;57.104;-2.094;2022-09-09T04:38:35;18.85;;;4.75;;
27333;SDS011;14817;57.104;-2.094;2022-09-09T04:41:03;16.90;;;3.83;;
27333;SDS011;14817;57.104;-2.094;2022-09-09T04:43:31;20.38;;;5.20;;
27333;SDS011;14817;57.104;-2.094;2022-09-09T04:46:00;20.40;;;4.78;;
27333;SDS011;14817;57.104;-2.094;2022-09-09T04:48:28;19.33;;;5.07;;
27333;SDS011;14817;57.104;-2.094;2022-09-09T04:51:03;28.08;;;6.10;;
27333;SDS011;14817;57.104;-2.094;2022-09-09T04:53:32;26.10;;;5.35;;
27333;SDS011;14817;57.104;-2.094;2022-09-09T04:56:01;38.25;;;7.63;;
27333;SDS011;14817;57.104;-2.094;2022-09-09T04:58:38;30.50;;;6.53;;
27333;SDS011;14817;57.104;-2.094;2022-09-09T05:01:10;28.60;;;5.85;;
27333;SDS011;14817;57.104;-2.094;2022-09-09T05:03:39;36.92;;;6.32;;
27333;SDS011;14817;57.104;-2.094;2022-09-09T05:06:13;22.83;;;6.30;;
27333;SDS011;14817;57.104;-2.094;2022-09-09T05:08:41;33.20;;;6.85;;
27333;SDS011;14817;57.104;-2.094;2022-09-09T05:11:16;44.75;;;8.77;;
27333;SDS011;14817;57.104;-2.094;2022-09-09T05:13:45;29.75;;;6.90;;
27333;SDS011;14817;57.104;-2.094;2022-09-09T05:16:14;33.10;;;7.85;;
27333;SDS011;14817;57.104;-2.094;2022-09-09T05:18:41;31.60;;;7.45;;
27333;SDS011;14817;57.104;-2.094;2022-09-09T05:21:13;38.30;;;7.30;;
27333;SDS011;14817;57.104;-2.094;2022-09-09T05:23:41;36.88;;;7.75;;
27333;SDS011;14817;57.104;-2.094;2022-09-09T05:26:09;31.42;;;6.40;;
27333;SDS011;14817;57.104;-2.094;2022-09-09T05:28:45;38.38;;;7.45;;
27333;SDS011;14817;57.104;-2.094;2022-09-09T05:31:14;25.80;;;6.25;;
27333;SDS011;14817;57.104;-2.094;2022-09-09T05:33:44;34.30;;;7.70;;
27333;SDS011;14817;57.104;-2.094;2022-09-09T05:36:14;37.33;;;7.68;;
27333;SDS011;14817;57.104;-2.094;2022-09-09T05:38:49;33.90;;;7.63;;
27333;SDS011;14817;57.104;-2.094;2022-09-09T05:41:17;39.10;;;7.30;;
27333;SDS011;14817;57.104;-2.094;2022-09-09T05:43:47;35.40;;;7.82;;
27333;SDS011;14817;57.104;-2.094;2022-09-09T05:46:19;49.83;;;10.38;;
27333;SDS011;14817;57.104;-2.094;2022-09-09T05:48:50;46.15;;;9.05;;
27333;SDS011;14817;57.104;-2.094;2022-09-09T05:51:20;50.72;;;9.15;;
27333;SDS011;14817;57.104;-2.094;2022-09-09T05:53:50;43.65;;;9.38;;
27333;SDS011;14817;57.104;-2.094;2022-09-09T05:56:19;52.85;;;9.68;;
27333;SDS011;14817;57.104;-2.094;2022-09-09T05:58:52;49.33;;;9.18;;
27333;SDS011;14817;57.104;-2.094;2022-09-09T06:01:27;43.35;;;9.38;;
27333;SDS011;14817;57.104;-2.094;2022-09-09T06:03:58;35.00;;;7.57;;
27333;SDS011;14817;57.104;-2.094;2022-09-09T06:06:26;33.53;;;6.88;;
27333;SDS011;14817;57.104;-2.094;2022-09-09T06:09:09;34.97;;;8.30;;
27333;SDS011;14817;57.104;-2.094;2022-09-09T06:11:39;45.17;;;6.87;;
27333;SDS011;14817;57.104;-2.094;2022-09-09T06:14:06;31.40;;;7.53;;
27333;SDS011;14817;57.104;-2.094;2022-09-09T06:16:35;43.80;;;8.75;;
27333;SDS011;14817;57.104;-2.094;2022-09-09T06:19:10;46.35;;;8.85;;
27333;SDS011;14817;57.104;-2.094;2022-09-09T06:21:38;48.08;;;9.73;;
27333;SDS011;14817;57.104;-2.094;2022-09-09T06:24:07;48.50;;;9.68;;
27333;SDS011;14817;57.104;-2.094;2022-09-09T06:26:36;42.38;;;10.13;;
27333;SDS011;14817;57.104;-2.094;2022-09-09T06:29:09;36.67;;;8.57;;
27333;SDS011;14817;57.104;-2.094;2022-09-09T06:31:36;57.58;;;11.05;;
27333;SDS011;14817;57.104;-2.094;2022-09-09T06:34:19;51.80;;;10.77;;
27333;SDS011;14817;57.104;-2.094;2022-09-09T06:36:50;46.35;;;8.65;;
27333;SDS011;14817;57.104;-2.094;2022-09-09T06:39:18;45.45;;;9.07;;
27333;SDS011;14817;57.104;-2.094;2022-09-09T06:41:45;45.25;;;8.35;;
27333;SDS011;14817;57.104;-2.094;2022-09-09T06:44:31;50.08;;;9.90;;
27333;SDS011;14817;57.104;-2.094;2022-09-09T06:47:01;46.72;;;9.80;;
27333;SDS011;14817;57.104;-2.094;2022-09-09T06:49:28;53.92;;;9.38;;
27333;SDS011;14817;57.104;-2.094;2022-09-09T06:51:56;47.83;;;9.07;;
27333;SDS011;14817;57.104;-2.094;2022-09-09T06:54:22;46.13;;;9.48;;
27333;SDS011;14817;57.104;-2.094;2022-09-09T06:56:52;48.92;;;9.88;;
27333;SDS011;14817;57.104;-2.094;2022-09-09T06:59:22;52.33;;;9.68;;
27333;SDS011;14817;57.104;-2.094;2022-09-09T07:01:51;48.70;;;8.93;;
27333;SDS011;14817;57.104;-2.094;2022-09-09T07:06:50;41.58;;;8.60;;
27333;SDS011;14817;57.104;-2.094;2022-09-09T07:09:26;48.10;;;9.60;;
27333;SDS011;14817;57.104;-2.094;2022-09-09T07:11:53;41.80;;;7.25;;
27333;SDS011;14817;57.104;-2.094;2022-09-09T07:14:22;45.63;;;9.15;;
27333;SDS011;14817;57.104;-2.094;2022-09-09T07:16:59;41.85;;;8.30;;
27333;SDS011;14817;57.104;-2.094;2022-09-09T07:19:31;36.28;;;9.10;;
27333;SDS011;14817;57.104;-2.094;2022-09-09T07:21:59;33.75;;;6.97;;
27333;SDS011;14817;57.104;-2.094;2022-09-09T07:24:26;40.35;;;9.02;;
27333;SDS011;14817;57.104;-2.094;2022-09-09T07:26:57;42.28;;;8.52;;
27333;SDS011;14817;57.104;-2.094;2022-09-09T07:29:23;41.92;;;8.70;;
27333;SDS011;14817;57.104;-2.094;2022-09-09T07:31:50;35.85;;;7.72;;
27333;SDS011;14817;57.104;-2.094;2022-09-09T07:34:23;44.45;;;7.50;;
27333;SDS011;14817;57.104;-2.094;2022-09-09T07:36:50;33.53;;;7.90;;
27333;SDS011;14817;57.104;-2.094;2022-09-09T07:39:18;43.15;;;9.05;;
27333;SDS011;14817;57.104;-2.094;2022-09-09T07:41:49;38.00;;;7.13;;
27333;SDS011;14817;57.104;-2.094;2022-09-09T07:44:19;35.28;;;7.43;;
27333;SDS011;14817;57.104;-2.094;2022-09-09T07:46:52;46.65;;;8.65;;
27333;SDS011;14817;57.104;-2.094;2022-09-09T07:49:25;36.90;;;6.72;;
27333;SDS011;14817;57.104;-2.094;2022-09-09T07:51:59;36.60;;;8.05;;
27333;SDS011;14817;57.104;-2.094;2022-09-09T07:54:27;36.83;;;6.68;;
27333;SDS011;14817;57.104;-2.094;2022-09-09T07:56:54;34.67;;;7.45;;
27333;SDS011;14817;57.104;-2.094;2022-09-09T07:59:24;36.40;;;6.63;;
27333;SDS011;14817;57.104;-2.094;2022-09-09T08:01:53;32.05;;;6.55;;
27333;SDS011;14817;57.104;-2.094;2022-09-09T08:04:24;33.08;;;7.40;;
27333;SDS011;14817;57.104;-2.094;2022-09-09T08:06:53;36.63;;;6.47;;
27333;SDS011;14817;57.104;-2.094;2022-09-09T08:09:25;34.92;;;7.65;;
27333;SDS011;14817;57.104;-2.094;2022-09-09T08:12:04;40.25;;;7.80;;
27333;SDS011;14817;57.104;-2.094;2022-09-09T08:14:33;37.70;;;8.10;;
27333;SDS011;14817;57.104;-2.094;2022-09-09T08:17:00;32.03;;;7.07;;
27333;SDS011;14817;57.104;-2.094;2022-09-09T08:19:29;33.47;;;7.15;;
27333;SDS011;14817;57.104;-2.094;2022-09-09T08:21:58;35.67;;;7.85;;
27333;SDS011;14817;57.104;-2.094;2022-09-09T08:24:26;33.33;;;6.57;;
27333;SDS011;14817;57.104;-2.094;2022-09-09T08:26:53;32.45;;;7.13;;
27333;SDS011;14817;57.104;-2.094;2022-09-09T08:29:22;44.47;;;7.03;;
27333;SDS011;14817;57.104;-2.094;2022-09-09T08:31:52;27.33;;;6.13;;
27333;SDS011;14817;57.104;-2.094;2022-09-09T08:34:25;34.70;;;7.20;;
27333;SDS011;14817;57.104;-2.094;2022-09-09T08:36:55;34.72;;;6.82;;
27333;SDS011;14817;57.104;-2.094;2022-09-09T08:39:28;40.35;;;7.20;;
27333;SDS011;14817;57.104;-2.094;2022-09-09T08:53:02;29.45;;;6.80;;
27333;SDS011;14817;57.104;-2.094;2022-09-09T08:55:48;32.60;;;6.55;;
27333;SDS011;14817;57.104;-2.094;2022-09-09T08:58:21;30.33;;;5.97;;
27333;SDS011;14817;57.104;-2.094;2022-09-09T09:01:00;42.97;;;7.15;;
27333;SDS011;14817;57.104;-2.094;2022-09-09T09:12:17;21.13;;;5.18;;
27333;SDS011;14817;57.104;-2.094;2022-09-09T09:14:48;24.67;;;5.10;;
27333;SDS011;14817;57.104;-2.094;2022-09-09T09:17:20;25.85;;;4.78;;
27333;SDS011;14817;57.104;-2.094;2022-09-09T09:19:50;26.45;;;5.72;;
27333;SDS011;14817;57.104;-2.094;2022-09-09T09:22:26;23.85;;;6.03;;
27333;SDS011;14817;57.104;-2.094;2022-09-09T09:25:11;25.98;;;5.45;;
27333;SDS011;14817;57.104;-2.094;2022-09-09T09:30:38;37.35;;;7.18;;
27333;SDS011;14817;57.104;-2.094;2022-09-09T09:33:18;29.13;;;6.07;;
27333;SDS011;14817;57.104;-2.094;2022-09-09T09:35:51;25.58;;;5.47;;
27333;SDS011;14817;57.104;-2.094;2022-09-09T09:38:23;20.63;;;4.70;;
27333;SDS011;14817;57.104;-2.094;2022-09-09T09:41:12;24.38;;;5.05;;
27333;SDS011;14817;57.104;-2.094;2022-09-09T09:43:40;26.25;;;5.43;;
27333;SDS011;14817;57.104;-2.094;2022-09-09T09:46:21;28.98;;;7.00;;
27333;SDS011;14817;57.104;-2.094;2022-09-09T09:51:27;27.20;;;6.13;;
27333;SDS011;14817;57.104;-2.094;2022-09-09T09:54:18;32.92;;;6.68;;
27333;SDS011;14817;57.104;-2.094;2022-09-09T09:57:07;16.48;;;3.92;;
27333;SDS011;14817;57.104;-2.094;2022-09-09T09:59:35;23.58;;;5.25;;
27333;SDS011;14817;57.104;-2.094;2022-09-09T10:02:22;22.85;;;5.45;;
27333;SDS011;14817;57.104;-2.094;2022-09-09T10:05:22;25.98;;;5.45;;
27333;SDS011;14817;57.104;-2.094;2022-09-09T10:08:10;25.20;;;4.50;;
27333;SDS011;14817;57.104;-2.094;2022-09-09T10:10:45;22.88;;;4.32;;
27333;SDS011;14817;57.104;-2.094;2022-09-09T10:13:35;22.20;;;4.68;;
27333;SDS011;14817;57.104;-2.094;2022-09-09T10:32:05;22.50;;;4.55;;
27333;SDS011;14817;57.104;-2.094;2022-09-09T10:37:11;20.27;;;3.88;;
27333;SDS011;14817;57.104;-2.094;2022-09-09T10:39:54;17.25;;;3.95;;
27333;SDS011;14817;57.104;-2.094;2022-09-09T10:42:31;19.48;;;3.55;;
27333;SDS011;14817;57.104;-2.094;2022-09-09T10:47:46;20.13;;;3.75;;
27333;SDS011;14817;57.104;-2.094;2022-09-09T10:55:56;32.28;;;4.10;;
27333;SDS011;14817;57.104;-2.094;2022-09-09T10:58:33;17.95;;;3.30;;
27333;SDS011;14817;57.104;-2.094;2022-09-09T11:01:13;17.83;;;4.28;;
27333;SDS011;14817;57.104;-2.094;2022-09-09T11:03:59;12.85;;;3.30;;
27333;SDS011;14817;57.104;-2.094;2022-09-09T11:06:34;13.32;;;2.80;;
27333;SDS011;14817;57.104;-2.094;2022-09-09T11:09:08;18.33;;;3.38;;
27333;SDS011;14817;57.104;-2.094;2022-09-09T11:11:53;12.63;;;3.55;;
27333;SDS011;14817;57.104;-2.094;2022-09-09T11:14:38;19.88;;;3.15;;
27333;SDS011;14817;57.104;-2.094;2022-09-09T11:17:31;17.75;;;4.07;;
27333;SDS011;14817;57.104;-2.094;2022-09-09T11:20:02;20.02;;;2.83;;
27333;SDS011;14817;57.104;-2.094;2022-09-09T11:22:39;12.30;;;2.90;;
27333;SDS011;14817;57.104;-2.094;2022-09-09T11:27:56;16.48;;;3.50;;
27333;SDS011;14817;57.104;-2.094;2022-09-09T11:33:31;19.92;;;3.65;;
27333;SDS011;14817;57.104;-2.094;2022-09-09T11:38:57;8.80;;;2.53;;
27333;SDS011;14817;57.104;-2.094;2022-09-09T11:41:36;14.15;;;2.90;;
27333;SDS011;14817;57.104;-2.094;2022-09-09T11:44:16;11.95;;;2.28;;
27333;SDS011;14817;57.104;-2.094;2022-09-09T11:46:48;10.80;;;3.55;;
27333;SDS011;14817;57.104;-2.094;2022-09-09T11:49:27;14.23;;;3.17;;
27333;SDS011;14817;57.104;-2.094;2022-09-09T11:51:57;14.98;;;3.10;;
27333;SDS011;14817;57.104;-2.094;2022-09-09T11:54:31;16.27;;;2.50;;
27333;SDS011;14817;57.104;-2.094;2022-09-09T11:56:59;15.73;;;2.90;;
27333;SDS011;14817;57.104;-2.094;2022-09-09T11:59:32;13.93;;;3.20;;
27333;SDS011;14817;57.104;-2.094;2022-09-09T12:02:09;14.55;;;2.03;;
27333;SDS011;14817;57.104;-2.094;2022-09-09T12:04:46;11.52;;;2.42;;
27333;SDS011;14817;57.104;-2.094;2022-09-09T12:07:31;10.05;;;2.45;;
27333;SDS011;14817;57.104;-2.094;2022-09-09T12:13:08;14.45;;;2.28;;
27333;SDS011;14817;57.104;-2.094;2022-09-09T12:15:46;11.07;;;2.25;;
27333;SDS011;14817;57.104;-2.094;2022-09-09T12:18:21;14.02;;;2.78;;
27333;SDS011;14817;57.104;-2.094;2022-09-09T12:20:54;7.85;;;2.47;;
27333;SDS011;14817;57.104;-2.094;2022-09-09T12:23:36;13.38;;;2.97;;
27333;SDS011;14817;57.104;-2.094;2022-09-09T12:29:15;15.32;;;2.22;;
27333;SDS011;14817;57.104;-2.094;2022-09-09T12:34:46;13.65;;;2.72;;
27333;SDS011;14817;57.104;-2.094;2022-09-09T12:39:47;12.02;;;2.22;;
27333;SDS011;14817;57.104;-2.094;2022-09-09T12:42:20;9.98;;;2.47;;
27333;SDS011;14817;57.104;-2.094;2022-09-09T12:44:54;11.27;;;2.55;;
27333;SDS011;14817;57.104;-2.094;2022-09-09T12:47:23;9.15;;;2.03;;
27333;SDS011;14817;57.104;-2.094;2022-09-09T12:49:56;11.45;;;2.58;;
27333;SDS011;14817;57.104;-2.094;2022-09-09T12:52:27;15.35;;;2.28;;
27333;SDS011;14817;57.104;-2.094;2022-09-09T12:54:57;13.27;;;2.45;;
27333;SDS011;14817;57.104;-2.094;2022-09-09T12:57:28;16.67;;;2.30;;
27333;SDS011;14817;57.104;-2.094;2022-09-09T13:00:04;11.80;;;2.25;;
27333;SDS011;14817;57.104;-2.094;2022-09-09T13:02:47;7.87;;;1.37;;
27333;SDS011;14817;57.104;-2.094;2022-09-09T13:05:22;5.35;;;1.15;;
27333;SDS011;14817;57.104;-2.094;2022-09-09T13:08:00;12.02;;;2.40;;
27333;SDS011;14817;57.104;-2.094;2022-09-09T13:10:43;7.78;;;1.77;;
27333;SDS011;14817;57.104;-2.094;2022-09-09T13:13:31;10.38;;;2.10;;
27333;SDS011;14817;57.104;-2.094;2022-09-09T13:16:03;10.55;;;2.33;;
27333;SDS011;14817;57.104;-2.094;2022-09-09T13:18:35;10.43;;;2.63;;
27333;SDS011;14817;57.104;-2.094;2022-09-09T13:21:04;11.30;;;2.00;;
27333;SDS011;14817;57.104;-2.094;2022-09-09T13:23:33;12.85;;;2.75;;
27333;SDS011;14817;57.104;-2.094;2022-09-09T13:26:03;11.73;;;2.53;;
27333;SDS011;14817;57.104;-2.094;2022-09-09T13:28:32;11.30;;;1.75;;
27333;SDS011;14817;57.104;-2.094;2022-09-09T13:31:02;9.30;;;2.22;;
27333;SDS011;14817;57.104;-2.094;2022-09-09T13:33:32;12.95;;;2.30;;
27333;SDS011;14817;57.104;-2.094;2022-09-09T13:36:06;6.78;;;1.90;;
27333;SDS011;14817;57.104;-2.094;2022-09-09T13:38:36;9.77;;;2.20;;
27333;SDS011;14817;57.104;-2.094;2022-09-09T13:41:24;5.53;;;1.75;;
27333;SDS011;14817;57.104;-2.094;2022-09-09T13:43:56;9.48;;;1.92;;
27333;SDS011;14817;57.104;-2.094;2022-09-09T13:46:24;9.63;;;2.55;;
27333;SDS011;14817;57.104;-2.094;2022-09-09T13:48:57;11.60;;;2.70;;
27333;SDS011;14817;57.104;-2.094;2022-09-09T13:54:01;7.95;;;1.95;;
27333;SDS011;14817;57.104;-2.094;2022-09-09T13:56:28;13.63;;;1.92;;
27333;SDS011;14817;57.104;-2.094;2022-09-09T13:58:55;9.30;;;2.33;;
27333;SDS011;14817;57.104;-2.094;2022-09-09T14:01:22;6.85;;;1.83;;
27333;SDS011;14817;57.104;-2.094;2022-09-09T14:03:54;10.75;;;1.45;;
27333;SDS011;14817;57.104;-2.094;2022-09-09T14:06:21;11.15;;;2.25;;
27333;SDS011;14817;57.104;-2.094;2022-09-09T14:08:49;7.50;;;1.73;;
27333;SDS011;14817;57.104;-2.094;2022-09-09T14:11:17;6.82;;;1.50;;
27333;SDS011;14817;57.104;-2.094;2022-09-09T14:13:44;7.15;;;1.55;;
27333;SDS011;14817;57.104;-2.094;2022-09-09T14:16:11;5.75;;;1.52;;
27333;SDS011;14817;57.104;-2.094;2022-09-09T14:18:38;8.02;;;1.30;;
27333;SDS011;14817;57.104;-2.094;2022-09-09T14:21:05;9.02;;;1.95;;
27333;SDS011;14817;57.104;-2.094;2022-09-09T14:23:32;6.03;;;1.65;;
27333;SDS011;14817;57.104;-2.094;2022-09-09T14:25:58;7.32;;;1.50;;
27333;SDS011;14817;57.104;-2.094;2022-09-09T14:28:25;7.32;;;1.38;;
27333;SDS011;14817;57.104;-2.094;2022-09-09T14:31:12;7.72;;;1.60;;
27333;SDS011;14817;57.104;-2.094;2022-09-09T14:33:40;8.25;;;1.23;;
27333;SDS011;14817;57.104;-2.094;2022-09-09T14:36:07;15.32;;;1.65;;
27333;SDS011;14817;57.104;-2.094;2022-09-09T14:38:34;6.35;;;1.70;;
27333;SDS011;14817;57.104;-2.094;2022-09-09T14:41:06;6.22;;;1.25;;
27333;SDS011;14817;57.104;-2.094;2022-09-09T14:43:36;8.02;;;1.13;;
27333;SDS011;14817;57.104;-2.094;2022-09-09T14:46:05;6.70;;;2.08;;
27333;SDS011;14817;57.104;-2.094;2022-09-09T14:48:33;8.55;;;1.50;;
27333;SDS011;14817;57.104;-2.094;2022-09-09T14:53:34;6.63;;;1.50;;
27333;SDS011;14817;57.104;-2.094;2022-09-09T14:58:58;6.18;;;1.42;;
27333;SDS011;14817;57.104;-2.094;2022-09-09T15:01:27;11.65;;;1.77;;
27333;SDS011;14817;57.104;-2.094;2022-09-09T15:03:56;9.57;;;1.67;;
27333;SDS011;14817;57.104;-2.094;2022-09-09T15:06:25;4.90;;;1.25;;
27333;SDS011;14817;57.104;-2.094;2022-09-09T15:08:55;13.50;;;1.88;;
27333;SDS011;14817;57.104;-2.094;2022-09-09T15:11:25;8.05;;;1.70;;
27333;SDS011;14817;57.104;-2.094;2022-09-09T15:13:54;8.05;;;2.03;;
27333;SDS011;14817;57.104;-2.094;2022-09-09T15:16:22;8.38;;;1.27;;
27333;SDS011;14817;57.104;-2.094;2022-09-09T15:18:51;6.60;;;1.60;;
27333;SDS011;14817;57.104;-2.094;2022-09-09T15:21:21;7.82;;;1.58;;
27333;SDS011;14817;57.104;-2.094;2022-09-09T15:23:50;6.85;;;1.63;;
27333;SDS011;14817;57.104;-2.094;2022-09-09T15:26:17;8.25;;;1.65;;
27333;SDS011;14817;57.104;-2.094;2022-09-09T15:28:45;5.45;;;1.17;;
27333;SDS011;14817;57.104;-2.094;2022-09-09T15:31:14;6.45;;;1.23;;
27333;SDS011;14817;57.104;-2.094;2022-09-09T15:33:52;4.63;;;1.25;;
27333;SDS011;14817;57.104;-2.094;2022-09-09T15:36:33;8.95;;;1.83;;
27333;SDS011;14817;57.104;-2.094;2022-09-09T15:39:03;9.63;;;1.50;;
27333;SDS011;14817;57.104;-2.094;2022-09-09T15:41:32;9.93;;;1.48;;
27333;SDS011;14817;57.104;-2.094;2022-09-09T15:43:59;9.27;;;1.77;;
27333;SDS011;14817;57.104;-2.094;2022-09-09T15:46:30;10.90;;;1.80;;
27333;SDS011;14817;57.104;-2.094;2022-09-09T15:49:09;8.23;;;1.77;;
27333;SDS011;14817;57.104;-2.094;2022-09-09T15:51:53;9.73;;;1.27;;
27333;SDS011;14817;57.104;-2.094;2022-09-09T15:54:33;7.80;;;1.75;;
27333;SDS011;14817;57.104;-2.094;2022-09-09T15:59:29;5.32;;;1.50;;
27333;SDS011;14817;57.104;-2.094;2022-09-09T16:01:57;6.68;;;1.33;;
27333;SDS011;14817;57.104;-2.094;2022-09-09T16:04:26;10.05;;;1.27;;
27333;SDS011;14817;57.104;-2.094;2022-09-09T16:06:59;6.93;;;1.33;;
27333;SDS011;14817;57.104;-2.094;2022-09-09T16:09:28;5.32;;;1.30;;
27333;SDS011;14817;57.104;-2.094;2022-09-09T16:11:56;6.53;;;1.70;;
27333;SDS011;14817;57.104;-2.094;2022-09-09T16:14:25;7.43;;;1.60;;
27333;SDS011;14817;57.104;-2.094;2022-09-09T16:16:52;10.55;;;1.52;;
27333;SDS011;14817;57.104;-2.094;2022-09-09T16:19:19;11.40;;;2.15;;
27333;SDS011;14817;57.104;-2.094;2022-09-09T16:21:46;8.23;;;1.50;;
27333;SDS011;14817;57.104;-2.094;2022-09-09T16:24:15;6.97;;;1.48;;
27333;SDS011;14817;57.104;-2.094;2022-09-09T16:26:47;7.25;;;1.35;;
27333;SDS011;14817;57.104;-2.094;2022-09-09T16:29:16;10.07;;;1.90;;
27333;SDS011;14817;57.104;-2.094;2022-09-09T16:31:44;14.48;;;2.20;;
27333;SDS011;14817;57.104;-2.094;2022-09-09T16:34:13;9.82;;;1.80;;
27333;SDS011;14817;57.104;-2.094;2022-09-09T16:36:41;8.35;;;1.63;;
27333;SDS011;14817;57.104;-2.094;2022-09-09T16:39:10;11.50;;;2.80;;
27333;SDS011;14817;57.104;-2.094;2022-09-09T16:41:39;9.57;;;2.00;;
27333;SDS011;14817;57.104;-2.094;2022-09-09T16:44:08;12.50;;;1.70;;
27333;SDS011;14817;57.104;-2.094;2022-09-09T16:46:39;12.95;;;2.25;;
27333;SDS011;14817;57.104;-2.094;2022-09-09T16:49:09;8.80;;;1.80;;
27333;SDS011;14817;57.104;-2.094;2022-09-09T16:51:38;5.68;;;1.52;;
27333;SDS011;14817;57.104;-2.094;2022-09-09T16:54:13;13.52;;;2.15;;
27333;SDS011;14817;57.104;-2.094;2022-09-09T16:56:42;13.70;;;2.47;;
27333;SDS011;14817;57.104;-2.094;2022-09-09T16:59:14;5.82;;;1.38;;
27333;SDS011;14817;57.104;-2.094;2022-09-09T17:01:43;13.57;;;1.33;;
27333;SDS011;14817;57.104;-2.094;2022-09-09T17:04:15;7.88;;;1.63;;
27333;SDS011;14817;57.104;-2.094;2022-09-09T17:06:47;8.15;;;1.90;;
27333;SDS011;14817;57.104;-2.094;2022-09-09T17:11:45;11.35;;;1.40;;
27333;SDS011;14817;57.104;-2.094;2022-09-09T17:14:14;8.07;;;1.40;;
27333;SDS011;14817;57.104;-2.094;2022-09-09T17:16:43;5.32;;;1.10;;
27333;SDS011;14817;57.104;-2.094;2022-09-09T17:19:11;11.38;;;1.85;;